createdAt,value
2023-01-20T00:00:22.184Z,13.36
2023-01-20T00:02:48.575Z,13.23
2023-01-20T00:05:15.176Z,13.44
2023-01-20T00:07:41.723Z,13.18
2023-01-20T00:10:07.991Z,13.17
2023-01-20T00:12:34.236Z,13.40
2023-01-20T00:15:00.533Z,13.40
2023-01-20T00:17:26.822Z,13.68
2023-01-20T00:19:53.068Z,13.47
2023-01-20T00:22:19.314Z,13.63
2023-01-20T00:24:45.583Z,12.72
2023-01-20T00:27:11.846Z,12.05
2023-01-20T00:29:38.118Z,12.39
2023-01-20T00:32:04.461Z,12.43
2023-01-20T00:34:30.715Z,12.52
2023-01-20T00:36:56.988Z,12.49
2023-01-20T00:39:23.291Z,12.71
2023-01-20T00:41:49.555Z,12.53
2023-01-20T00:44:15.816Z,12.87
2023-01-20T00:46:42.141Z,12.70
2023-01-20T00:49:08.481Z,12.29
2023-01-20T00:51:34.737Z,12.23
2023-01-20T00:54:00.999Z,11.92
2023-01-20T00:56:27.283Z,12.18
2023-01-20T00:58:53.545Z,11.77
2023-01-20T01:01:19.881Z,11.48
2023-01-20T01:03:46.169Z,11.40
2023-01-20T01:06:12.422Z,11.16
2023-01-20T01:08:38.729Z,11.02
2023-01-20T01:11:04.990Z,10.94
2023-01-20T01:13:31.237Z,10.65
2023-01-20T01:15:57.514Z,10.29
2023-01-20T01:18:23.879Z,10.53
2023-01-20T01:20:50.165Z,10.66
2023-01-20T01:23:16.446Z,10.77
2023-01-20T01:25:42.732Z,9.99
2023-01-20T01:28:08.999Z,9.75
2023-01-20T01:30:35.337Z,9.44
2023-01-20T01:33:01.724Z,9.22
2023-01-20T01:35:28.008Z,8.99
2023-01-20T01:37:54.281Z,8.94
2023-01-20T01:40:20.572Z,9.55
2023-01-20T01:42:46.926Z,9.63
2023-01-20T01:45:13.873Z,9.86
2023-01-20T01:47:40.344Z,9.30
2023-01-20T01:50:06.597Z,10.06
2023-01-20T01:52:32.881Z,10.12
2023-01-20T01:54:59.144Z,10.24
2023-01-20T01:57:25.389Z,10.46
2023-01-20T01:59:51.657Z,10.22
2023-01-20T02:02:17.942Z,10.42
2023-01-20T02:04:48.988Z,10.14
2023-01-20T02:07:16.636Z,11.05
2023-01-20T02:09:42.892Z,11.10
2023-01-20T02:12:09.160Z,11.21
2023-01-20T02:14:35.433Z,11.34
2023-01-20T02:17:01.699Z,12.13
2023-01-20T02:19:27.968Z,11.75
2023-01-20T02:21:54.239Z,11.60
2023-01-20T02:24:20.591Z,11.70
2023-01-20T02:26:46.929Z,12.17
2023-01-20T02:29:13.200Z,12.15
2023-01-20T02:31:39.668Z,12.97
2023-01-20T02:34:05.964Z,13.91
2023-01-20T02:36:32.253Z,13.97
2023-01-20T02:38:58.706Z,14.72
2023-01-20T02:41:25.021Z,14.31
2023-01-20T02:43:51.285Z,16.94
2023-01-20T02:46:17.558Z,16.90
2023-01-20T02:48:43.858Z,16.26
2023-01-20T02:51:10.125Z,17.13
2023-01-20T02:53:36.387Z,16.47
2023-01-20T02:56:02.672Z,16.47
2023-01-20T02:58:28.941Z,16.68
2023-01-20T03:00:55.261Z,16.74
2023-01-20T03:03:21.577Z,16.66
2023-01-20T03:05:47.864Z,17.17
2023-01-20T03:08:14.132Z,17.04
2023-01-20T03:10:40.406Z,17.75
2023-01-20T03:13:06.683Z,17.45
2023-01-20T03:15:32.969Z,17.36
2023-01-20T03:17:59.273Z,16.41
2023-01-20T03:20:25.535Z,15.50
2023-01-20T03:22:51.841Z,15.58
2023-01-20T03:25:18.128Z,15.45
2023-01-20T03:27:44.412Z,14.77
2023-01-20T03:30:10.711Z,15.02
2023-01-20T03:32:36.971Z,14.76
2023-01-20T03:35:03.272Z,14.36
2023-01-20T03:37:29.541Z,14.70
2023-01-20T03:39:55.832Z,16.28
2023-01-20T03:42:22.119Z,18.24
2023-01-20T03:44:48.414Z,21.05
2023-01-20T03:47:14.712Z,21.49
2023-01-20T03:49:40.968Z,22.13
2023-01-20T03:52:07.269Z,22.68
2023-01-20T03:54:33.560Z,22.48
2023-01-20T03:56:59.837Z,22.15
2023-01-20T03:59:26.124Z,21.87
2023-01-20T04:01:52.481Z,22.21
2023-01-20T04:04:18.858Z,21.37
2023-01-20T04:06:45.143Z,21.67
2023-01-20T04:09:11.415Z,22.74
2023-01-20T04:11:37.683Z,22.22
2023-01-20T04:14:03.955Z,21.75
2023-01-20T04:16:30.243Z,21.12
2023-01-20T04:18:56.508Z,22.02
2023-01-20T04:21:22.873Z,22.06
2023-01-20T04:23:49.129Z,21.85
2023-01-20T04:26:15.414Z,21.61
2023-01-20T04:28:41.683Z,21.50
2023-01-20T04:31:18.108Z,22.11
2023-01-20T04:33:51.202Z,22.21
2023-01-20T04:36:17.468Z,22.18
2023-01-20T04:38:43.761Z,21.72
2023-01-20T04:41:10.038Z,22.43
2023-01-20T04:43:36.292Z,22.48
2023-01-20T04:46:02.600Z,21.17
2023-01-20T04:48:28.904Z,21.81
2023-01-20T04:50:55.200Z,22.06
2023-01-20T04:53:21.663Z,22.56
2023-01-20T04:55:47.968Z,21.96
2023-01-20T04:58:14.227Z,22.41
2023-01-20T05:00:42.384Z,22.05
2023-01-20T05:03:09.794Z,23.36
2023-01-20T05:05:36.104Z,23.42
2023-01-20T05:08:02.383Z,24.03
2023-01-20T05:10:28.664Z,23.77
2023-01-20T05:12:54.917Z,23.83
2023-01-20T05:15:21.176Z,23.89
2023-01-20T05:17:47.451Z,23.66
2023-01-20T05:20:13.811Z,23.04
2023-01-20T05:22:40.058Z,22.42
2023-01-20T05:25:06.318Z,21.91
2023-01-20T05:27:32.875Z,23.17
2023-01-20T05:29:59.205Z,23.35
2023-01-20T05:32:25.490Z,23.90
2023-01-20T05:34:51.783Z,23.87
2023-01-20T05:37:18.037Z,23.90
2023-01-20T05:39:44.285Z,23.10
2023-01-20T05:42:10.633Z,21.90
2023-01-20T05:44:36.898Z,22.18
2023-01-20T05:47:03.178Z,21.39
2023-01-20T05:49:29.523Z,21.04
2023-01-20T05:51:55.823Z,20.66
2023-01-20T05:54:22.115Z,20.83
2023-01-20T05:56:48.416Z,19.60
2023-01-20T05:59:14.740Z,16.95
2023-01-20T06:01:41.013Z,16.32
2023-01-20T06:04:07.326Z,14.76
2023-01-20T06:06:33.608Z,12.96
2023-01-20T06:08:59.877Z,12.82
2023-01-20T06:11:26.158Z,13.75
2023-01-20T06:13:52.419Z,15.79
2023-01-20T06:16:18.704Z,18.19
2023-01-20T06:18:44.996Z,19.37
2023-01-20T06:21:11.279Z,19.71
2023-01-20T06:23:37.568Z,19.00
2023-01-20T06:26:03.917Z,17.97
2023-01-20T06:28:30.234Z,18.73
2023-01-20T06:30:56.539Z,18.88
2023-01-20T06:33:22.823Z,23.06
2023-01-20T06:35:49.091Z,25.01
2023-01-20T06:38:15.397Z,25.29
2023-01-20T06:40:41.695Z,25.69
2023-01-20T06:43:07.982Z,25.24
2023-01-20T06:45:34.293Z,25.66
2023-01-20T06:48:00.572Z,26.40
2023-01-20T06:50:26.845Z,27.21
2023-01-20T06:52:53.105Z,29.62
2023-01-20T06:55:19.387Z,29.48
2023-01-20T06:57:45.682Z,29.72
2023-01-20T07:00:11.986Z,30.10
2023-01-20T07:02:38.287Z,29.64
2023-01-20T07:05:04.635Z,29.66
2023-01-20T07:07:30.907Z,29.58
2023-01-20T07:09:57.155Z,29.88
2023-01-20T07:12:23.460Z,28.14
2023-01-20T07:14:49.730Z,28.26
2023-01-20T07:17:16.005Z,28.41
2023-01-20T07:19:42.280Z,27.77
2023-01-20T07:22:08.569Z,27.24
2023-01-20T07:24:34.856Z,26.64
2023-01-20T07:27:01.124Z,27.00
2023-01-20T07:29:27.406Z,26.87
2023-01-20T07:31:53.732Z,27.87
2023-01-20T07:34:20.091Z,26.92
2023-01-20T07:36:46.387Z,26.32
2023-01-20T07:39:12.656Z,26.96
2023-01-20T07:41:38.945Z,27.23
2023-01-20T07:44:05.262Z,26.73
2023-01-20T07:46:31.543Z,28.34
2023-01-20T07:48:57.838Z,29.22
2023-01-20T07:51:24.127Z,31.04
2023-01-20T07:53:50.408Z,32.18
2023-01-20T07:56:16.676Z,33.75
2023-01-20T07:58:42.963Z,34.26
2023-01-20T08:01:09.441Z,34.16
2023-01-20T08:03:35.762Z,34.20
2023-01-20T08:06:02.064Z,34.59
2023-01-20T08:08:28.321Z,33.91
2023-01-20T08:10:54.640Z,33.69
2023-01-20T08:13:20.974Z,32.65
2023-01-20T08:15:47.330Z,33.40
2023-01-20T08:18:13.594Z,33.46
2023-01-20T08:20:39.919Z,33.44
2023-01-20T08:23:06.186Z,31.89
2023-01-20T08:25:32.452Z,30.75
2023-01-20T08:27:58.700Z,31.27
2023-01-20T08:30:25.112Z,30.16
2023-01-20T08:32:51.444Z,28.66
2023-01-20T08:35:17.719Z,28.63
2023-01-20T08:37:44.001Z,28.34
2023-01-20T08:40:10.304Z,29.77
2023-01-20T08:42:36.599Z,29.87
2023-01-20T08:45:02.895Z,28.61
2023-01-20T08:47:29.182Z,28.43
2023-01-20T08:49:55.460Z,27.37
2023-01-20T08:52:21.733Z,27.37
2023-01-20T08:54:48.010Z,28.16
2023-01-20T08:57:14.261Z,29.76
2023-01-20T08:59:40.551Z,28.49
2023-01-20T09:02:06.890Z,27.92
2023-01-20T09:04:33.196Z,27.92
2023-01-20T09:06:59.487Z,27.44
2023-01-20T09:09:25.767Z,27.20
2023-01-20T09:11:52.142Z,26.43
2023-01-20T09:14:18.430Z,25.26
2023-01-20T09:16:44.708Z,25.23
2023-01-20T09:19:10.960Z,25.80
2023-01-20T09:21:37.275Z,25.76
2023-01-20T09:24:03.560Z,24.92
2023-01-20T09:26:35.832Z,22.90
2023-01-20T09:29:02.416Z,21.52
2023-01-20T09:31:28.765Z,20.93
2023-01-20T09:33:55.094Z,21.03
2023-01-20T09:36:21.392Z,21.02
2023-01-20T09:38:47.671Z,20.46
2023-01-20T09:41:13.982Z,19.86
2023-01-20T09:43:40.260Z,20.19
2023-01-20T09:46:06.616Z,19.13
2023-01-20T09:48:32.919Z,18.98
2023-01-20T09:50:59.203Z,19.36
2023-01-20T09:53:25.574Z,18.96
2023-01-20T09:55:51.886Z,18.95
2023-01-20T09:58:18.182Z,18.79
2023-01-20T10:00:44.470Z,18.48
2023-01-20T10:03:10.760Z,18.97
2023-01-20T10:05:37.084Z,19.48
2023-01-20T10:08:03.459Z,18.83
2023-01-20T10:10:29.731Z,19.03
2023-01-20T10:12:56.010Z,19.23
2023-01-20T10:15:22.272Z,19.20
2023-01-20T10:17:48.537Z,20.64
2023-01-20T10:20:15.039Z,21.66
2023-01-20T10:22:41.456Z,21.39
2023-01-20T10:25:07.740Z,21.30
2023-01-20T10:27:34.057Z,22.30
2023-01-20T10:30:00.342Z,22.01
2023-01-20T10:32:26.627Z,20.77
2023-01-20T10:34:54.474Z,20.47
2023-01-20T10:37:22.535Z,20.32
2023-01-20T10:39:48.844Z,19.22
2023-01-20T10:42:15.150Z,19.23
2023-01-20T10:44:41.427Z,19.45
2023-01-20T10:47:07.741Z,20.51
2023-01-20T10:49:33.996Z,20.17
2023-01-20T10:52:00.272Z,19.35
2023-01-20T10:54:26.556Z,17.88
2023-01-20T10:56:52.860Z,18.02
2023-01-20T10:59:19.134Z,19.07
2023-01-20T11:01:45.581Z,18.01
2023-01-20T11:04:11.872Z,16.07
2023-01-20T11:06:38.156Z,16.55
2023-01-20T11:09:04.425Z,15.99
2023-01-20T11:11:30.726Z,13.24
2023-01-20T11:13:57.007Z,15.12
2023-01-20T11:16:23.284Z,14.02
2023-01-20T11:18:49.554Z,11.92
2023-01-20T11:21:15.812Z,12.50
2023-01-20T11:23:42.108Z,14.14
2023-01-20T11:26:08.369Z,14.80
2023-01-20T11:28:34.672Z,14.41
2023-01-20T11:31:01.067Z,13.35
2023-01-20T11:33:27.483Z,13.28
2023-01-20T11:35:53.754Z,13.16
2023-01-20T11:38:20.062Z,12.57
2023-01-20T11:40:46.365Z,13.10
2023-01-20T11:43:12.644Z,13.38
2023-01-20T11:45:38.922Z,14.70
2023-01-20T11:48:05.185Z,14.73
2023-01-20T11:50:31.437Z,15.73
2023-01-20T11:52:57.734Z,15.88
2023-01-20T11:55:23.991Z,17.25
2023-01-20T11:57:50.265Z,17.88
2023-01-20T12:00:17.012Z,18.65
2023-01-20T12:02:43.573Z,18.29
2023-01-20T12:05:09.857Z,18.69
2023-01-20T12:07:36.133Z,19.09
2023-01-20T12:10:05.266Z,19.60
2023-01-20T12:12:33.764Z,20.13
2023-01-20T12:15:00.239Z,20.15
2023-01-20T12:17:26.527Z,21.01
2023-01-20T12:19:52.809Z,22.79
2023-01-20T12:22:19.076Z,21.59
2023-01-20T12:24:45.357Z,22.80
2023-01-20T12:27:11.654Z,23.07
2023-01-20T12:29:37.918Z,22.57
2023-01-20T12:32:04.198Z,23.65
2023-01-20T12:34:30.548Z,23.79
2023-01-20T12:36:56.856Z,23.91
2023-01-20T12:39:23.118Z,23.59
2023-01-20T12:41:49.419Z,23.43
2023-01-20T12:44:15.720Z,23.94
2023-01-20T12:46:42.011Z,24.55
2023-01-20T12:49:08.329Z,23.97
2023-01-20T12:51:34.577Z,24.33
2023-01-20T12:54:00.837Z,24.65
2023-01-20T12:56:27.115Z,24.29
2023-01-20T12:58:53.419Z,23.91
2023-01-20T13:01:19.703Z,24.43
2023-01-20T13:03:45.982Z,25.78
2023-01-20T13:06:12.226Z,26.13
2023-01-20T13:08:38.479Z,27.10
2023-01-20T13:11:04.736Z,27.70
2023-01-20T13:13:30.993Z,27.79
2023-01-20T13:15:57.266Z,27.85
2023-01-20T13:18:23.558Z,28.74
2023-01-20T13:20:49.857Z,29.24
2023-01-20T13:23:16.133Z,28.63
2023-01-20T13:25:42.445Z,29.45
2023-01-20T13:28:08.743Z,29.24
2023-01-20T13:30:35.134Z,30.23
2023-01-20T13:33:01.472Z,30.66
2023-01-20T13:35:27.732Z,30.51
2023-01-20T13:37:54.011Z,31.62
2023-01-20T13:40:20.298Z,31.03
2023-01-20T13:42:46.573Z,32.49
2023-01-20T13:45:13.079Z,33.01
2023-01-20T13:47:39.604Z,32.83
2023-01-20T13:50:05.881Z,34.02
2023-01-20T13:52:32.179Z,33.51
2023-01-20T13:54:58.469Z,33.98
2023-01-20T13:57:25.036Z,33.46
2023-01-20T13:59:51.306Z,34.23
2023-01-20T14:02:17.577Z,35.94
2023-01-20T14:04:43.872Z,35.61
2023-01-20T14:07:10.132Z,35.92
2023-01-20T14:09:36.419Z,36.17
2023-01-20T14:12:02.711Z,36.15
2023-01-20T14:14:28.996Z,38.94
2023-01-20T14:16:55.266Z,38.12
2023-01-20T14:19:21.544Z,36.13
2023-01-20T14:21:47.826Z,36.35
2023-01-20T14:24:14.100Z,37.39
2023-01-20T14:26:40.360Z,37.97
2023-01-20T14:29:06.723Z,39.24
2023-01-20T14:31:34.349Z,38.67
2023-01-20T14:34:00.765Z,36.81
2023-01-20T14:36:27.059Z,35.48
2023-01-20T14:38:57.772Z,36.53
2023-01-20T14:41:24.664Z,34.77
2023-01-20T14:43:50.931Z,34.21
2023-01-20T14:46:17.236Z,33.87
2023-01-20T14:48:43.548Z,32.44
2023-01-20T14:51:12.173Z,33.02
2023-01-20T14:53:39.261Z,32.20
2023-01-20T14:56:05.548Z,31.31
2023-01-20T14:58:31.848Z,31.29
2023-01-20T15:00:58.143Z,31.91
2023-01-20T15:03:24.454Z,31.24
2023-01-20T15:05:50.770Z,31.28
2023-01-20T15:08:17.058Z,30.45
2023-01-20T15:10:43.306Z,30.46
2023-01-20T15:13:09.582Z,30.52
2023-01-20T15:15:35.932Z,30.88
2023-01-20T15:18:02.281Z,29.47
2023-01-20T15:20:28.531Z,28.00
2023-01-20T15:22:54.834Z,28.72
2023-01-20T15:25:21.132Z,28.84
2023-01-20T15:27:47.386Z,29.19
2023-01-20T15:30:14.032Z,28.93
2023-01-20T15:32:40.455Z,29.11
2023-01-20T15:35:06.742Z,29.45
2023-01-20T15:37:33.033Z,27.80
2023-01-20T15:39:59.333Z,28.16
2023-01-20T15:42:25.610Z,28.21
2023-01-20T15:44:51.914Z,28.30
2023-01-20T15:47:18.204Z,28.06
2023-01-20T15:49:44.479Z,27.74
2023-01-20T15:52:10.771Z,27.63
2023-01-20T15:54:37.043Z,28.53
2023-01-20T15:57:03.306Z,27.45
2023-01-20T15:59:29.573Z,28.03
2023-01-20T16:01:55.864Z,28.60
2023-01-20T16:04:22.155Z,29.94
2023-01-20T16:06:48.440Z,29.68
2023-01-20T16:09:14.725Z,28.16
2023-01-20T16:11:40.976Z,29.02
2023-01-20T16:14:07.233Z,28.55
2023-01-20T16:16:33.689Z,28.23
2023-01-20T16:18:59.990Z,28.55
2023-01-20T16:21:26.268Z,27.93
2023-01-20T16:23:52.552Z,28.35
2023-01-20T16:26:18.826Z,28.24
2023-01-20T16:28:45.124Z,28.18
2023-01-20T16:31:11.527Z,27.92
2023-01-20T16:33:37.881Z,28.05
2023-01-20T16:36:04.155Z,28.00
2023-01-20T16:38:30.413Z,29.09
2023-01-20T16:40:56.672Z,29.17
2023-01-20T16:43:22.954Z,30.18
2023-01-20T16:45:49.284Z,31.27
2023-01-20T16:48:15.584Z,30.90
2023-01-20T16:50:41.888Z,30.96
2023-01-20T16:53:08.142Z,29.47
2023-01-20T16:55:34.416Z,30.42
2023-01-20T16:58:00.702Z,31.55
2023-01-20T17:00:26.988Z,29.75
2023-01-20T17:02:53.303Z,30.43
2023-01-20T17:05:19.581Z,29.97
2023-01-20T17:07:45.862Z,30.49
2023-01-20T17:10:12.198Z,32.04
2023-01-20T17:12:38.500Z,31.14
2023-01-20T17:15:04.797Z,32.61
2023-01-20T17:17:31.084Z,33.15
2023-01-20T17:19:57.333Z,33.97
2023-01-20T17:22:23.615Z,32.57
2023-01-20T17:24:49.924Z,31.40
2023-01-20T17:27:16.233Z,32.60
2023-01-20T17:29:42.502Z,33.94
2023-01-20T17:32:08.760Z,33.63
2023-01-20T17:34:35.070Z,34.22
2023-01-20T17:37:01.351Z,33.11
2023-01-20T17:39:27.628Z,34.13
2023-01-20T17:41:53.888Z,32.87
2023-01-20T17:44:20.180Z,33.61
2023-01-20T17:46:46.633Z,34.29
2023-01-20T17:49:12.920Z,34.13
2023-01-20T17:51:39.217Z,32.71
2023-01-20T17:54:05.514Z,33.42
2023-01-20T17:56:31.779Z,33.93
2023-01-20T17:58:58.055Z,33.71
2023-01-20T18:01:24.386Z,33.66
2023-01-20T18:03:50.674Z,34.10
2023-01-20T18:06:16.959Z,32.71
2023-01-20T18:08:43.446Z,32.38
2023-01-20T18:11:09.755Z,31.07
2023-01-20T18:13:36.051Z,32.31
2023-01-20T18:16:02.347Z,32.11
2023-01-20T18:18:28.686Z,31.91
2023-01-20T18:20:54.950Z,32.11
2023-01-20T18:23:21.316Z,32.22
2023-01-20T18:25:47.609Z,32.64
2023-01-20T18:28:13.872Z,33.08
2023-01-20T18:30:40.251Z,33.44
2023-01-20T18:33:06.654Z,34.20
2023-01-20T18:35:32.947Z,32.74
2023-01-20T18:37:59.247Z,32.90
2023-01-20T18:40:25.500Z,33.14
2023-01-20T18:42:51.791Z,32.23
2023-01-20T18:45:18.059Z,32.88
2023-01-20T18:47:44.327Z,34.43
2023-01-20T18:50:10.610Z,33.88
2023-01-20T18:52:37.038Z,35.19
2023-01-20T18:55:03.304Z,34.77
2023-01-20T18:57:29.591Z,34.59
2023-01-20T18:59:55.878Z,34.07
2023-01-20T19:02:22.240Z,33.80
2023-01-20T19:04:48.559Z,34.53
2023-01-20T19:07:14.838Z,34.29
2023-01-20T19:09:41.140Z,35.03
2023-01-20T19:12:07.442Z,32.61
2023-01-20T19:14:33.698Z,32.23
2023-01-20T19:16:59.972Z,32.43
2023-01-20T19:19:26.270Z,33.52
2023-01-20T19:21:52.574Z,32.34
2023-01-20T19:24:18.873Z,32.63
2023-01-20T19:26:45.134Z,31.72
2023-01-20T19:29:11.420Z,32.67
2023-01-20T19:31:37.731Z,32.25
2023-01-20T19:34:04.034Z,33.19
2023-01-20T19:36:30.303Z,36.49
2023-01-20T19:38:56.602Z,37.00
2023-01-20T19:41:22.885Z,36.64
2023-01-20T19:43:49.163Z,35.48
2023-01-20T19:46:15.522Z,33.05
2023-01-20T19:48:41.834Z,30.42
2023-01-20T19:51:08.162Z,29.08
2023-01-20T19:53:34.502Z,29.54
2023-01-20T19:56:00.788Z,29.42
2023-01-20T19:58:27.112Z,29.85
2023-01-20T20:00:53.486Z,29.25
2023-01-20T20:03:19.821Z,30.58
2023-01-20T20:05:46.098Z,31.04
2023-01-20T20:08:12.358Z,31.50
2023-01-20T20:10:38.636Z,30.65
2023-01-20T20:13:04.959Z,30.01
2023-01-20T20:15:31.394Z,28.45
2023-01-20T20:17:57.676Z,29.71
2023-01-20T20:20:23.940Z,29.74
2023-01-20T20:22:50.245Z,30.01
2023-01-20T20:25:16.530Z,29.75
2023-01-20T20:27:42.851Z,30.78
2023-01-20T20:30:09.195Z,30.52
2023-01-20T20:32:35.516Z,31.56
2023-01-20T20:35:01.812Z,30.43
2023-01-20T20:37:28.100Z,30.28
2023-01-20T20:39:54.376Z,29.81
2023-01-20T20:42:20.666Z,31.41
2023-01-20T20:44:46.982Z,30.84
2023-01-20T20:47:14.381Z,32.51
2023-01-20T20:49:40.651Z,31.30
2023-01-20T20:52:06.919Z,32.47
2023-01-20T20:54:33.171Z,32.77
2023-01-20T20:56:59.430Z,32.29
2023-01-20T20:59:25.821Z,32.57
2023-01-20T21:01:52.212Z,31.65
2023-01-20T21:04:18.612Z,31.32
2023-01-20T21:06:44.873Z,31.97
2023-01-20T21:09:11.181Z,31.54
2023-01-20T21:11:38.465Z,30.13
2023-01-20T21:14:04.976Z,29.29
2023-01-20T21:16:31.393Z,30.53
2023-01-20T21:18:57.682Z,30.51
2023-01-20T21:21:23.952Z,30.00
2023-01-20T21:23:50.243Z,29.36
2023-01-20T21:26:16.517Z,29.65
2023-01-20T21:28:42.826Z,30.60
2023-01-20T21:31:09.211Z,29.73
2023-01-20T21:33:38.064Z,30.93
2023-01-20T21:36:04.484Z,31.54
2023-01-20T21:38:30.752Z,31.23
2023-01-20T21:40:57.036Z,31.30
2023-01-20T21:43:23.290Z,31.23
2023-01-20T21:45:49.565Z,31.52
2023-01-20T21:48:15.851Z,31.29
2023-01-20T21:50:42.152Z,30.64
2023-01-20T21:53:08.431Z,31.00
2023-01-20T21:55:34.724Z,31.54
2023-01-20T21:58:01.008Z,32.92
2023-01-20T22:00:27.276Z,31.46
2023-01-20T22:02:53.535Z,30.26
2023-01-20T22:05:19.803Z,29.75
2023-01-20T22:07:46.317Z,30.77
2023-01-20T22:10:12.584Z,29.61
2023-01-20T22:12:38.866Z,30.49
2023-01-20T22:15:05.148Z,30.60
2023-01-20T22:17:31.505Z,29.43
2023-01-20T22:19:57.778Z,29.54
2023-01-20T22:22:24.052Z,28.88
2023-01-20T22:24:50.361Z,28.59
2023-01-20T22:27:16.616Z,28.66
2023-01-20T22:29:42.877Z,27.80
2023-01-20T22:32:09.158Z,27.88
2023-01-20T22:34:35.482Z,25.73
2023-01-20T22:37:01.787Z,25.24
2023-01-20T22:39:28.072Z,24.96
2023-01-20T22:41:54.346Z,25.55
2023-01-20T22:44:20.603Z,25.56
2023-01-20T22:46:46.852Z,25.11
2023-01-20T22:49:13.123Z,24.43
2023-01-20T22:51:39.407Z,23.74
2023-01-20T22:54:05.684Z,23.78
2023-01-20T22:56:31.956Z,24.47
2023-01-20T22:58:58.262Z,27.06
2023-01-20T23:01:24.676Z,27.05
2023-01-20T23:03:50.979Z,26.92
2023-01-20T23:06:17.242Z,26.31
2023-01-20T23:08:43.534Z,26.23
2023-01-20T23:11:09.792Z,25.60
2023-01-20T23:13:36.053Z,26.32
2023-01-20T23:16:02.325Z,25.66
2023-01-20T23:18:28.589Z,25.19
2023-01-20T23:20:54.897Z,24.81
2023-01-20T23:23:21.184Z,22.62
2023-01-20T23:25:47.459Z,22.04
2023-01-20T23:28:13.803Z,21.23
2023-01-20T23:30:40.141Z,19.78
2023-01-20T23:33:06.459Z,18.22
2023-01-20T23:35:32.732Z,16.69
2023-01-20T23:37:59.008Z,16.31
2023-01-20T23:40:25.292Z,15.95
2023-01-20T23:42:51.654Z,17.13
2023-01-20T23:45:17.931Z,19.99
2023-01-20T23:47:44.223Z,22.16
2023-01-20T23:50:10.521Z,22.43
2023-01-20T23:52:36.799Z,22.33
2023-01-20T23:55:03.092Z,22.30
2023-01-20T23:57:29.357Z,22.27
2023-01-20T23:59:55.628Z,22.76
